Airfield :
LOGIN :

Register | Disclaimer

   EN    FR    IT 

 










Legend :    VFR   Marginal VFR   IFR   Intensive IFR   Very Intensive IFR
Visi :
Ceiling :
>= 8 km
>= 3000ft
5 to 8 km
1000 to 3000 ft
1500m to 5 km
500 to 1000 ft
800 to 1500m
200 to 500 ft
< 800m
< 200 ft
Symbols :   Thunderstorms  Fog  Heavy snow  Heavy precipitations  Wind > 20 kt
SIGMETs :     Misc.  Thunderstorms  Icing  Turbulence  Mountain Waves  Volcanic Ashes






- Airport Elevation : 48 ft
- IATA code : PSR


LIBP - Abruzzo Pescara

CURRENT METAR :
  • 181350Z AUTO VRB02KT 9999 BKN058/// BKN100/// 14/07 Q1008

EXPIRED METARs :
  • 181320Z AUTO 32003KT 250V030 9999 FEW066/// BKN094/// 13/07 Q1009
  • 181250Z AUTO 35006KT 320V030 9999 BKN068/// BKN100/// 13/08 Q1009
  • 181220Z AUTO 35006KT 310V040 9999 FEW013/// SCT051/// BKN100/// 12/07 Q1009 RERA
  • 181150Z AUTO VRB07KT 8000 RA OVC028/// 11/09 Q1009
  • 181120Z AUTO 03006KT 360V060 9999 -RA BKN039/// 13/07 Q1009
  • 181050Z AUTO 05012KT 9999 FEW028/// BKN066/// BKN082/// 14/08 Q1008
  • 181020Z AUTO 01010KT 340V050 9999 -RA FEW018/// BKN062/// 14/07 Q1008
  • 180950Z AUTO 02009KT 9999 -RA OVC062/// 13/07 Q1008 RERA
  • 180920Z AUTO 02012KT 350V060 9999 -RA FEW019/// BKN078/// 14/06 Q1008

TAF TAF LIBP
Valid from the 18 at 12:00 until the 19 at 12:00 UTC


181100Z 1812/1912 06010KT 9999 SCT050
TEMPO 1812/1818 4000 TSRA
BECMG 1816/1818 VRB05KT
BECMG 1820/1822 24010KT
TEMPO 1900/1912 TSRA
BECMG 1905/1907 01015KT



MET'MAP, your aeronautical weather chart ! - Copyright ORBIFLY December 2007 - Disclaimer

ORBIFLY MET'MAP TEAM :

Programming & Development : Alexandra Zaïnal
Original concept : Baudouin d'Aumeries
Technical & hardware support : Manuel Goepfert
Assistance : Marc-Olivier Méhu




SOURCES & CREDITS :

   NOAA